sensor_id;sensor_type;location;lat;lon;timestamp;pressure;altitude;pressure_sealevel;temperature;humidity
78149;BME280;67396;42.664;23.382;2023-05-17T00:00:46;94344.72;;;16.15;64.94
78149;BME280;67396;42.664;23.382;2023-05-17T00:03:12;94353.44;;;16.14;65.47
78149;BME280;67396;42.664;23.382;2023-05-17T00:05:37;94357.00;;;16.14;65.58
78149;BME280;67396;42.664;23.382;2023-05-17T00:08:03;94364.53;;;15.98;62.82
78149;BME280;67396;42.664;23.382;2023-05-17T00:10:28;94365.06;;;15.60;64.15
78149;BME280;67396;42.664;23.382;2023-05-17T00:12:54;94360.94;;;15.49;64.60
78149;BME280;67396;42.664;23.382;2023-05-17T00:15:19;94347.31;;;15.58;65.22
78149;BME280;67396;42.664;23.382;2023-05-17T00:17:44;94352.72;;;15.65;64.56
78149;BME280;67396;42.664;23.382;2023-05-17T00:20:10;94336.38;;;15.70;64.69
78149;BME280;67396;42.664;23.382;2023-05-17T00:22:36;94342.50;;;15.78;64.43
78149;BME280;67396;42.664;23.382;2023-05-17T00:25:02;94344.66;;;15.87;64.71
78149;BME280;67396;42.664;23.382;2023-05-17T00:27:27;94344.66;;;15.87;64.19
78149;BME280;67396;42.664;23.382;2023-05-17T00:29:52;94352.00;;;15.93;63.83
78149;BME280;67396;42.664;23.382;2023-05-17T00:32:18;94354.94;;;16.02;63.18
78149;BME280;67396;42.664;23.382;2023-05-17T00:34:43;94352.16;;;16.02;63.64
78149;BME280;67396;42.664;23.382;2023-05-17T00:37:09;94351.31;;;16.05;62.82
78149;BME280;67396;42.664;23.382;2023-05-17T00:39:34;94353.38;;;16.01;62.70
78149;BME280;67396;42.664;23.382;2023-05-17T00:42:00;94353.56;;;15.94;62.74
78149;BME280;67396;42.664;23.382;2023-05-17T00:44:25;94352.44;;;15.92;62.72
78149;BME280;67396;42.664;23.382;2023-05-17T00:46:51;94355.97;;;15.92;62.69
78149;BME280;67396;42.664;23.382;2023-05-17T00:49:16;94357.53;;;15.77;63.15
78149;BME280;67396;42.664;23.382;2023-05-17T00:51:43;94355.56;;;15.77;63.28
78149;BME280;67396;42.664;23.382;2023-05-17T00:54:09;94357.19;;;15.75;63.42
78149;BME280;67396;42.664;23.382;2023-05-17T00:56:34;94358.75;;;15.76;62.90
78149;BME280;67396;42.664;23.382;2023-05-17T00:59:01;94365.31;;;15.66;63.57
78149;BME280;67396;42.664;23.382;2023-05-17T01:01:29;94364.25;;;15.43;64.26
78149;BME280;67396;42.664;23.382;2023-05-17T01:03:55;94359.13;;;15.26;65.17
78149;BME280;67396;42.664;23.382;2023-05-17T01:06:20;94362.00;;;15.02;65.71
78149;BME280;67396;42.664;23.382;2023-05-17T01:08:46;94366.44;;;15.16;65.60
78149;BME280;67396;42.664;23.382;2023-05-17T01:11:25;94372.38;;;15.15;65.84
78149;BME280;67396;42.664;23.382;2023-05-17T01:14:12;94366.28;;;15.23;65.76
78149;BME280;67396;42.664;23.382;2023-05-17T01:17:08;94355.94;;;15.27;65.15
78149;BME280;67396;42.664;23.382;2023-05-17T01:20:04;94349.94;;;15.13;64.85
78149;BME280;67396;42.664;23.382;2023-05-17T01:22:47;94354.81;;;15.05;65.52
78149;BME280;67396;42.664;23.382;2023-05-17T01:25:28;94362.13;;;14.95;65.38
78149;BME280;67396;42.664;23.382;2023-05-17T01:28:00;94346.63;;;15.01;66.05
78149;BME280;67396;42.664;23.382;2023-05-17T01:30:27;94357.59;;;15.05;66.06
78149;BME280;67396;42.664;23.382;2023-05-17T01:32:56;94358.63;;;14.95;66.51
78149;BME280;67396;42.664;23.382;2023-05-17T01:35:25;94357.13;;;14.71;66.76
78149;BME280;67396;42.664;23.382;2023-05-17T01:37:54;94360.03;;;14.63;66.87
78149;BME280;67396;42.664;23.382;2023-05-17T01:40:20;94363.00;;;14.53;66.79
78149;BME280;67396;42.664;23.382;2023-05-17T01:42:52;94357.25;;;14.24;67.30
78149;BME280;67396;42.664;23.382;2023-05-17T01:45:39;94365.94;;;14.22;67.02
78149;BME280;67396;42.664;23.382;2023-05-17T01:48:17;94355.59;;;14.07;67.77
78149;BME280;67396;42.664;23.382;2023-05-17T01:50:47;94359.19;;;14.04;67.51
78149;BME280;67396;42.664;23.382;2023-05-17T01:53:38;94358.81;;;14.02;67.53
78149;BME280;67396;42.664;23.382;2023-05-17T01:56:15;94354.09;;;14.02;67.73
78149;BME280;67396;42.664;23.382;2023-05-17T01:58:45;94346.94;;;14.05;67.19
78149;BME280;67396;42.664;23.382;2023-05-17T02:01:13;94352.69;;;14.14;67.00
78149;BME280;67396;42.664;23.382;2023-05-17T02:03:39;94352.38;;;14.08;67.08
78149;BME280;67396;42.664;23.382;2023-05-17T02:06:05;94354.31;;;14.11;66.38
78149;BME280;67396;42.664;23.382;2023-05-17T02:08:30;94359.53;;;13.82;67.92
78149;BME280;67396;42.664;23.382;2023-05-17T02:10:56;94357.88;;;13.88;68.33
78149;BME280;67396;42.664;23.382;2023-05-17T02:13:21;94353.31;;;13.78;68.63
78149;BME280;67396;42.664;23.382;2023-05-17T02:15:47;94359.38;;;13.70;68.62
78149;BME280;67396;42.664;23.382;2023-05-17T02:18:12;94361.34;;;13.69;68.24
78149;BME280;67396;42.664;23.382;2023-05-17T02:20:37;94346.28;;;13.74;68.45
78149;BME280;67396;42.664;23.382;2023-05-17T02:23:03;94345.28;;;13.87;67.96
78149;BME280;67396;42.664;23.382;2023-05-17T02:25:28;94341.91;;;14.00;67.85
78149;BME280;67396;42.664;23.382;2023-05-17T02:27:54;94345.97;;;14.15;67.21
78149;BME280;67396;42.664;23.382;2023-05-17T02:30:19;94344.75;;;13.96;67.84
78149;BME280;67396;42.664;23.382;2023-05-17T02:32:46;94341.19;;;13.72;68.90
78149;BME280;67396;42.664;23.382;2023-05-17T02:35:12;94343.53;;;13.74;68.83
78149;BME280;67396;42.664;23.382;2023-05-17T02:37:37;94342.66;;;13.80;68.74
78149;BME280;67396;42.664;23.382;2023-05-17T02:40:05;94356.13;;;13.75;68.90
78149;BME280;67396;42.664;23.382;2023-05-17T02:42:33;94362.22;;;13.89;68.72
78149;BME280;67396;42.664;23.382;2023-05-17T02:44:59;94355.47;;;13.90;68.56
78149;BME280;67396;42.664;23.382;2023-05-17T02:47:24;94354.97;;;13.72;69.32
78149;BME280;67396;42.664;23.382;2023-05-17T02:49:50;94363.44;;;13.62;69.92
78149;BME280;67396;42.664;23.382;2023-05-17T02:52:15;94372.75;;;13.71;69.40
78149;BME280;67396;42.664;23.382;2023-05-17T02:54:41;94380.16;;;13.51;70.46
78149;BME280;67396;42.664;23.382;2023-05-17T02:57:09;94388.28;;;13.35;71.52
78149;BME280;67396;42.664;23.382;2023-05-17T02:59:35;94381.13;;;13.37;71.27
78149;BME280;67396;42.664;23.382;2023-05-17T03:02:00;94374.38;;;13.42;70.86
78149;BME280;67396;42.664;23.382;2023-05-17T03:04:26;94389.75;;;13.43;71.02
78149;BME280;67396;42.664;23.382;2023-05-17T03:06:51;94388.06;;;13.49;71.01
78149;BME280;67396;42.664;23.382;2023-05-17T03:09:17;94397.59;;;13.44;71.13
78149;BME280;67396;42.664;23.382;2023-05-17T03:11:43;94386.59;;;13.41;71.47
78149;BME280;67396;42.664;23.382;2023-05-17T03:14:08;94395.38;;;13.36;71.38
78149;BME280;67396;42.664;23.382;2023-05-17T03:16:33;94397.53;;;13.48;70.99
78149;BME280;67396;42.664;23.382;2023-05-17T03:18:59;94403.66;;;13.59;70.64
78149;BME280;67396;42.664;23.382;2023-05-17T03:21:25;94413.81;;;13.66;70.26
78149;BME280;67396;42.664;23.382;2023-05-17T03:23:50;94409.81;;;13.70;70.17
78149;BME280;67396;42.664;23.382;2023-05-17T03:26:15;94413.75;;;13.69;70.05
78149;BME280;67396;42.664;23.382;2023-05-17T03:28:43;94409.97;;;13.60;70.34
78149;BME280;67396;42.664;23.382;2023-05-17T03:31:08;94403.13;;;13.44;70.86
78149;BME280;67396;42.664;23.382;2023-05-17T03:33:34;94400.25;;;13.51;71.04
78149;BME280;67396;42.664;23.382;2023-05-17T03:35:59;94399.31;;;13.35;71.30
78149;BME280;67396;42.664;23.382;2023-05-17T03:38:25;94407.31;;;13.26;72.03
78149;BME280;67396;42.664;23.382;2023-05-17T03:40:51;94395.44;;;13.29;71.89
78149;BME280;67396;42.664;23.382;2023-05-17T03:43:17;94393.91;;;13.28;72.19
78149;BME280;67396;42.664;23.382;2023-05-17T03:45:42;94397.78;;;13.30;72.08
78149;BME280;67396;42.664;23.382;2023-05-17T03:48:08;94386.50;;;13.21;72.42
78149;BME280;67396;42.664;23.382;2023-05-17T03:50:33;94393.97;;;13.21;73.09
78149;BME280;67396;42.664;23.382;2023-05-17T03:52:59;94400.66;;;13.23;72.80
78149;BME280;67396;42.664;23.382;2023-05-17T03:55:24;94410.53;;;13.21;72.66
78149;BME280;67396;42.664;23.382;2023-05-17T03:57:50;94397.47;;;13.25;73.21
78149;BME280;67396;42.664;23.382;2023-05-17T04:00:15;94399.41;;;13.28;73.07
78149;BME280;67396;42.664;23.382;2023-05-17T04:02:51;94403.81;;;13.22;73.23
78149;BME280;67396;42.664;23.382;2023-05-17T04:05:17;94408.78;;;13.34;73.22
78149;BME280;67396;42.664;23.382;2023-05-17T04:07:43;94399.34;;;13.31;73.44
78149;BME280;67396;42.664;23.382;2023-05-17T04:10:09;94411.84;;;13.39;72.93
78149;BME280;67396;42.664;23.382;2023-05-17T04:12:35;94421.25;;;13.42;72.81
78149;BME280;67396;42.664;23.382;2023-05-17T04:15:01;94425.84;;;13.52;72.51
78149;BME280;67396;42.664;23.382;2023-05-17T04:17:27;94427.06;;;13.74;71.90
78149;BME280;67396;42.664;23.382;2023-05-17T04:19:53;94421.34;;;13.88;71.42
78149;BME280;67396;42.664;23.382;2023-05-17T04:22:21;94419.91;;;13.80;71.70
78149;BME280;67396;42.664;23.382;2023-05-17T04:24:47;94418.13;;;13.90;71.45
78149;BME280;67396;42.664;23.382;2023-05-17T04:27:12;94413.59;;;13.80;71.71
78149;BME280;67396;42.664;23.382;2023-05-17T04:29:38;94413.72;;;13.96;71.43
78149;BME280;67396;42.664;23.382;2023-05-17T04:32:06;94411.63;;;14.04;70.96
78149;BME280;67396;42.664;23.382;2023-05-17T04:34:31;94414.84;;;13.99;71.69
78149;BME280;67396;42.664;23.382;2023-05-17T04:36:57;94409.22;;;14.06;70.85
78149;BME280;67396;42.664;23.382;2023-05-17T04:39:22;94413.84;;;14.12;70.48
78149;BME280;67396;42.664;23.382;2023-05-17T04:42:06;94400.09;;;14.09;70.46
78149;BME280;67396;42.664;23.382;2023-05-17T04:44:33;94400.75;;;14.40;69.33
78149;BME280;67396;42.664;23.382;2023-05-17T04:46:58;94405.88;;;14.41;69.22
78149;BME280;67396;42.664;23.382;2023-05-17T04:49:24;94406.53;;;14.68;68.65
78149;BME280;67396;42.664;23.382;2023-05-17T04:51:50;94401.34;;;14.90;67.78
78149;BME280;67396;42.664;23.382;2023-05-17T04:54:15;94400.75;;;14.99;67.09
78149;BME280;67396;42.664;23.382;2023-05-17T04:56:41;94396.00;;;15.19;66.31
78149;BME280;67396;42.664;23.382;2023-05-17T04:59:06;94401.22;;;15.33;65.83
78149;BME280;67396;42.664;23.382;2023-05-17T05:01:31;94402.00;;;15.50;65.31
78149;BME280;67396;42.664;23.382;2023-05-17T05:03:59;94401.38;;;15.62;64.97
78149;BME280;67396;42.664;23.382;2023-05-17T05:06:25;94405.13;;;15.72;64.84
78149;BME280;67396;42.664;23.382;2023-05-17T05:08:50;94415.16;;;15.82;64.02
78149;BME280;67396;42.664;23.382;2023-05-17T05:11:16;94412.81;;;15.80;64.03
78149;BME280;67396;42.664;23.382;2023-05-17T05:13:42;94421.78;;;15.85;63.80
78149;BME280;67396;42.664;23.382;2023-05-17T05:16:07;94417.03;;;15.85;64.36
78149;BME280;67396;42.664;23.382;2023-05-17T05:18:33;94428.88;;;15.69;64.24
78149;BME280;67396;42.664;23.382;2023-05-17T05:20:58;94421.56;;;15.23;65.62
78149;BME280;67396;42.664;23.382;2023-05-17T05:23:24;94414.16;;;15.20;66.04
78149;BME280;67396;42.664;23.382;2023-05-17T05:25:52;94422.34;;;15.24;66.11
78149;BME280;67396;42.664;23.382;2023-05-17T05:28:20;94415.72;;;15.57;64.92
78149;BME280;67396;42.664;23.382;2023-05-17T05:30:55;94417.75;;;15.89;63.69
78149;BME280;67396;42.664;23.382;2023-05-17T05:33:24;94423.47;;;15.98;63.21
78149;BME280;67396;42.664;23.382;2023-05-17T05:35:56;94424.13;;;16.02;63.71
78149;BME280;67396;42.664;23.382;2023-05-17T05:38:21;94427.06;;;16.44;62.46
78149;BME280;67396;42.664;23.382;2023-05-17T05:40:47;94420.59;;;16.79;60.91
78149;BME280;67396;42.664;23.382;2023-05-17T05:43:13;94422.78;;;17.01;59.20
78149;BME280;67396;42.664;23.382;2023-05-17T05:45:38;94415.09;;;16.92;59.57
78149;BME280;67396;42.664;23.382;2023-05-17T05:48:13;94431.66;;;17.08;59.25
78149;BME280;67396;42.664;23.382;2023-05-17T05:50:40;94430.00;;;17.11;57.75
78149;BME280;67396;42.664;23.382;2023-05-17T05:53:07;94428.59;;;17.19;57.46
78149;BME280;67396;42.664;23.382;2023-05-17T05:55:33;94429.00;;;17.05;58.04
78149;BME280;67396;42.664;23.382;2023-05-17T05:57:58;94435.13;;;17.25;57.17
78149;BME280;67396;42.664;23.382;2023-05-17T06:00:33;94434.94;;;16.90;58.46
78149;BME280;67396;42.664;23.382;2023-05-17T06:02:59;94436.75;;;16.68;58.87
78149;BME280;67396;42.664;23.382;2023-05-17T06:05:25;94435.25;;;16.64;58.38
78149;BME280;67396;42.664;23.382;2023-05-17T06:07:50;94446.66;;;16.82;58.25
78149;BME280;67396;42.664;23.382;2023-05-17T06:10:16;94438.06;;;16.92;58.30
78149;BME280;67396;42.664;23.382;2023-05-17T06:12:41;94443.75;;;17.02;57.84
78149;BME280;67396;42.664;23.382;2023-05-17T06:15:07;94450.47;;;17.29;56.70
78149;BME280;67396;42.664;23.382;2023-05-17T06:17:32;94445.50;;;17.37;56.68
78149;BME280;67396;42.664;23.382;2023-05-17T06:19:58;94441.97;;;17.49;56.13
78149;BME280;67396;42.664;23.382;2023-05-17T06:22:23;94437.31;;;17.46;56.52
78149;BME280;67396;42.664;23.382;2023-05-17T06:24:49;94453.03;;;17.37;56.72
78149;BME280;67396;42.664;23.382;2023-05-17T06:27:15;94437.94;;;16.67;58.74
78149;BME280;67396;42.664;23.382;2023-05-17T06:29:40;94440.19;;;16.72;59.14
78149;BME280;67396;42.664;23.382;2023-05-17T06:32:06;94462.47;;;16.69;59.72
78149;BME280;67396;42.664;23.382;2023-05-17T06:34:31;94464.66;;;16.61;59.74
78149;BME280;67396;42.664;23.382;2023-05-17T06:36:57;94454.59;;;16.67;59.78
78149;BME280;67396;42.664;23.382;2023-05-17T06:42:46;94448.03;;;16.12;61.97
78149;BME280;67396;42.664;23.382;2023-05-17T06:45:34;94442.47;;;16.29;61.46
78149;BME280;67396;42.664;23.382;2023-05-17T06:48:06;94451.91;;;16.31;61.90
78149;BME280;67396;42.664;23.382;2023-05-17T06:50:38;94455.97;;;16.43;61.66
78149;BME280;67396;42.664;23.382;2023-05-17T06:53:09;94441.06;;;16.53;61.35
78149;BME280;67396;42.664;23.382;2023-05-17T06:55:35;94451.31;;;16.24;62.65
78149;BME280;67396;42.664;23.382;2023-05-17T06:58:04;94446.63;;;16.37;62.29
78149;BME280;67396;42.664;23.382;2023-05-17T07:00:45;94460.97;;;16.48;61.99
78149;BME280;67396;42.664;23.382;2023-05-17T07:03:10;94461.34;;;16.50;62.26
78149;BME280;67396;42.664;23.382;2023-05-17T07:05:39;94456.81;;;16.56;62.09
78149;BME280;67396;42.664;23.382;2023-05-17T07:08:06;94460.19;;;16.64;61.71
78149;BME280;67396;42.664;23.382;2023-05-17T07:10:32;94463.44;;;16.13;63.74
78149;BME280;67396;42.664;23.382;2023-05-17T07:12:58;94470.00;;;16.19;63.07
78149;BME280;67396;42.664;23.382;2023-05-17T07:15:30;94476.13;;;16.27;63.28
78149;BME280;67396;42.664;23.382;2023-05-17T07:18:00;94475.88;;;16.05;64.07
78149;BME280;67396;42.664;23.382;2023-05-17T07:20:25;94467.22;;;16.03;63.87
78149;BME280;67396;42.664;23.382;2023-05-17T07:22:56;94469.63;;;15.85;64.75
78149;BME280;67396;42.664;23.382;2023-05-17T07:25:22;94484.38;;;15.62;65.34
78149;BME280;67396;42.664;23.382;2023-05-17T07:27:47;94468.38;;;15.54;65.96
78149;BME280;67396;42.664;23.382;2023-05-17T07:30:13;94482.97;;;15.54;66.21
78149;BME280;67396;42.664;23.382;2023-05-17T07:32:40;94482.41;;;15.63;66.08
78149;BME280;67396;42.664;23.382;2023-05-17T07:35:06;94479.41;;;15.73;65.59
78149;BME280;67396;42.664;23.382;2023-05-17T07:37:32;94486.66;;;15.84;64.96
78149;BME280;67396;42.664;23.382;2023-05-17T07:40:07;94486.00;;;15.60;65.43
78149;BME280;67396;42.664;23.382;2023-05-17T07:42:36;94486.13;;;15.72;65.57
78149;BME280;67396;42.664;23.382;2023-05-17T07:45:01;94486.00;;;15.60;66.21
78149;BME280;67396;42.664;23.382;2023-05-17T07:47:30;94486.00;;;15.60;66.35
78149;BME280;67396;42.664;23.382;2023-05-17T07:50:13;94479.72;;;15.75;65.72
78149;BME280;67396;42.664;23.382;2023-05-17T07:52:39;94476.72;;;15.86;65.47
78149;BME280;67396;42.664;23.382;2023-05-17T07:55:05;94484.19;;;15.89;65.04
78149;BME280;67396;42.664;23.382;2023-05-17T07:57:32;94479.69;;;15.95;64.97
78149;BME280;67396;42.664;23.382;2023-05-17T08:00:00;94480.13;;;16.10;64.35
78149;BME280;67396;42.664;23.382;2023-05-17T08:02:26;94485.22;;;16.28;64.85
78149;BME280;67396;42.664;23.382;2023-05-17T08:04:51;94483.09;;;16.35;64.85
78149;BME280;67396;42.664;23.382;2023-05-17T08:07:17;94482.47;;;16.44;64.63
78149;BME280;67396;42.664;23.382;2023-05-17T08:09:42;94479.88;;;16.53;64.29
78149;BME280;67396;42.664;23.382;2023-05-17T08:12:09;94475.72;;;16.61;63.98
78149;BME280;67396;42.664;23.382;2023-05-17T08:14:35;94476.75;;;16.51;64.21
78149;BME280;67396;42.664;23.382;2023-05-17T08:17:03;94467.75;;;16.63;64.55
78149;BME280;67396;42.664;23.382;2023-05-17T08:19:28;94465.28;;;16.81;64.04
78149;BME280;67396;42.664;23.382;2023-05-17T08:21:54;94465.22;;;16.98;63.75
78149;BME280;67396;42.664;23.382;2023-05-17T08:24:20;94467.69;;;16.96;63.28
78149;BME280;67396;42.664;23.382;2023-05-17T08:26:45;94457.84;;;17.07;63.39
78149;BME280;67396;42.664;23.382;2023-05-17T08:29:11;94463.09;;;17.18;62.52
78149;BME280;67396;42.664;23.382;2023-05-17T08:31:36;94459.47;;;17.34;62.34
78149;BME280;67396;42.664;23.382;2023-05-17T08:34:02;94454.84;;;17.02;63.47
78149;BME280;67396;42.664;23.382;2023-05-17T08:36:27;94459.59;;;17.01;63.74
78149;BME280;67396;42.664;23.382;2023-05-17T08:38:53;94466.28;;;17.16;63.11
78149;BME280;67396;42.664;23.382;2023-05-17T08:41:19;94465.06;;;17.05;63.60
78149;BME280;67396;42.664;23.382;2023-05-17T08:43:46;94463.22;;;16.98;63.56
78149;BME280;67396;42.664;23.382;2023-05-17T08:46:13;94466.94;;;17.08;63.80
78149;BME280;67396;42.664;23.382;2023-05-17T08:48:41;94469.63;;;17.11;63.47
78149;BME280;67396;42.664;23.382;2023-05-17T08:51:07;94463.53;;;17.16;63.44
78149;BME280;67396;42.664;23.382;2023-05-17T08:53:36;94466.88;;;17.24;63.18
78149;BME280;67396;42.664;23.382;2023-05-17T08:56:03;94459.00;;;17.22;63.67
78149;BME280;67396;42.664;23.382;2023-05-17T08:58:34;94461.88;;;17.19;63.36
78149;BME280;67396;42.664;23.382;2023-05-17T09:01:05;94446.22;;;17.25;62.68
78149;BME280;67396;42.664;23.382;2023-05-17T09:03:33;94458.47;;;17.27;62.57
78149;BME280;67396;42.664;23.382;2023-05-17T09:05:59;94467.13;;;17.29;62.27
78149;BME280;67396;42.664;23.382;2023-05-17T09:08:25;94463.00;;;17.34;62.71
78149;BME280;67396;42.664;23.382;2023-05-17T09:10:52;94456.94;;;17.39;62.97
78149;BME280;67396;42.664;23.382;2023-05-17T09:13:18;94449.59;;;17.33;63.78
78149;BME280;67396;42.664;23.382;2023-05-17T09:15:46;94442.72;;;17.37;63.46
78149;BME280;67396;42.664;23.382;2023-05-17T09:18:12;94437.66;;;17.48;62.04
78149;BME280;67396;42.664;23.382;2023-05-17T09:20:39;94439.63;;;17.60;61.49
78149;BME280;67396;42.664;23.382;2023-05-17T09:23:09;94443.41;;;17.54;60.47
78149;BME280;67396;42.664;23.382;2023-05-17T09:25:37;94443.63;;;17.59;60.42
78149;BME280;67396;42.664;23.382;2023-05-17T09:28:04;94450.75;;;17.60;60.97
78149;BME280;67396;42.664;23.382;2023-05-17T09:30:33;94444.34;;;17.22;61.71
78149;BME280;67396;42.664;23.382;2023-05-17T09:33:07;94448.22;;;17.24;61.85
78149;BME280;67396;42.664;23.382;2023-05-17T09:35:33;94443.66;;;17.18;62.37
78149;BME280;67396;42.664;23.382;2023-05-17T09:38:10;94440.38;;;17.23;62.68
78149;BME280;67396;42.664;23.382;2023-05-17T09:40:40;94449.09;;;17.09;62.50
78149;BME280;67396;42.664;23.382;2023-05-17T09:43:06;94458.81;;;17.01;63.44
78149;BME280;67396;42.664;23.382;2023-05-17T09:45:32;94456.38;;;17.03;63.25
78149;BME280;67396;42.664;23.382;2023-05-17T09:48:13;94457.09;;;17.19;63.83
78149;BME280;67396;42.664;23.382;2023-05-17T09:50:43;94464.41;;;17.13;63.19
78149;BME280;67396;42.664;23.382;2023-05-17T09:53:29;94455.31;;;17.13;62.90
78149;BME280;67396;42.664;23.382;2023-05-17T09:55:57;94459.09;;;17.19;62.65
78149;BME280;67396;42.664;23.382;2023-05-17T09:58:24;94462.00;;;17.28;62.20
78149;BME280;67396;42.664;23.382;2023-05-17T10:00:52;94446.03;;;16.90;63.22
78149;BME280;67396;42.664;23.382;2023-05-17T10:03:19;94444.09;;;17.16;62.55
78149;BME280;67396;42.664;23.382;2023-05-17T10:05:45;94446.56;;;17.14;61.11
78149;BME280;67396;42.664;23.382;2023-05-17T10:08:14;94442.19;;;17.01;61.86
78149;BME280;67396;42.664;23.382;2023-05-17T10:10:42;94430.16;;;16.91;61.63
78149;BME280;67396;42.664;23.382;2023-05-17T10:13:09;94437.19;;;16.96;61.98
78149;BME280;67396;42.664;23.382;2023-05-17T10:15:37;94448.88;;;17.16;61.51
78149;BME280;67396;42.664;23.382;2023-05-17T10:18:04;94436.59;;;16.88;61.77
78149;BME280;67396;42.664;23.382;2023-05-17T10:20:30;94431.34;;;16.77;62.21
78149;BME280;67396;42.664;23.382;2023-05-17T10:22:56;94423.69;;;16.81;62.82
78149;BME280;67396;42.664;23.382;2023-05-17T10:25:22;94414.16;;;16.82;62.69
78149;BME280;67396;42.664;23.382;2023-05-17T10:27:49;94403.97;;;16.79;62.71
78149;BME280;67396;42.664;23.382;2023-05-17T10:30:16;94397.44;;;16.86;62.54
78149;BME280;67396;42.664;23.382;2023-05-17T10:32:44;94397.81;;;17.01;61.93
78149;BME280;67396;42.664;23.382;2023-05-17T10:35:11;94371.44;;;17.09;61.73
78149;BME280;67396;42.664;23.382;2023-05-17T10:37:40;94377.53;;;17.16;61.45
78149;BME280;67396;42.664;23.382;2023-05-17T10:40:07;94374.81;;;17.29;62.03
78149;BME280;67396;42.664;23.382;2023-05-17T10:42:39;94364.66;;;17.10;61.85
78149;BME280;67396;42.664;23.382;2023-05-17T10:45:07;94354.78;;;17.09;62.18
78149;BME280;67396;42.664;23.382;2023-05-17T10:47:33;94346.72;;;17.14;61.71
78149;BME280;67396;42.664;23.382;2023-05-17T10:50:00;94347.38;;;17.18;61.78
78149;BME280;67396;42.664;23.382;2023-05-17T10:52:26;94328.41;;;17.04;62.74
78149;BME280;67396;42.664;23.382;2023-05-17T10:54:51;94316.19;;;17.02;62.75
78149;BME280;67396;42.664;23.382;2023-05-17T10:57:19;94311.31;;;17.06;62.68
78149;BME280;67396;42.664;23.382;2023-05-17T10:59:56;94318.63;;;17.00;63.27
78149;BME280;67396;42.664;23.382;2023-05-17T11:02:23;94309.22;;;17.10;62.69
78149;BME280;67396;42.664;23.382;2023-05-17T11:04:49;94310.88;;;17.07;62.53
78149;BME280;67396;42.664;23.382;2023-05-17T11:09:50;94321.28;;;17.16;63.08
78149;BME280;67396;42.664;23.382;2023-05-17T11:12:28;94327.88;;;17.22;63.02
78149;BME280;67396;42.664;23.382;2023-05-17T11:14:55;94313.97;;;16.97;63.46
78149;BME280;67396;42.664;23.382;2023-05-17T11:17:26;94321.94;;;16.95;63.61
78149;BME280;67396;42.664;23.382;2023-05-17T11:20:06;94344.22;;;16.91;64.17
78149;BME280;67396;42.664;23.382;2023-05-17T11:22:37;94330.66;;;16.80;63.58
78149;BME280;67396;42.664;23.382;2023-05-17T11:25:08;94353.53;;;16.84;63.96
78149;BME280;67396;42.664;23.382;2023-05-17T11:27:43;94356.09;;;16.91;64.80
78149;BME280;67396;42.664;23.382;2023-05-17T11:32:46;94385.66;;;16.82;64.69
78149;BME280;67396;42.664;23.382;2023-05-17T11:35:12;94376.44;;;16.72;65.37
78149;BME280;67396;42.664;23.382;2023-05-17T11:37:42;94401.97;;;16.80;65.66
78149;BME280;67396;42.664;23.382;2023-05-17T11:40:08;94399.19;;;16.80;64.70
78149;BME280;67396;42.664;23.382;2023-05-17T11:42:34;94385.00;;;16.78;64.16
78149;BME280;67396;42.664;23.382;2023-05-17T11:45:01;94403.00;;;16.86;64.06
78149;BME280;67396;42.664;23.382;2023-05-17T11:47:27;94386.94;;;16.93;63.58
78149;BME280;67396;42.664;23.382;2023-05-17T11:49:54;94413.97;;;16.89;62.73
78149;BME280;67396;42.664;23.382;2023-05-17T11:52:21;94425.25;;;16.82;62.51
78149;BME280;67396;42.664;23.382;2023-05-17T11:54:50;94395.09;;;16.84;63.09
78149;BME280;67396;42.664;23.382;2023-05-17T11:57:17;94411.31;;;16.86;62.89
78149;BME280;67396;42.664;23.382;2023-05-17T11:59:44;94398.22;;;16.86;62.23
78149;BME280;67396;42.664;23.382;2023-05-17T12:02:24;94412.44;;;16.88;61.06
78149;BME280;67396;42.664;23.382;2023-05-17T12:04:50;94423.53;;;16.88;60.90
78149;BME280;67396;42.664;23.382;2023-05-17T12:07:15;94405.41;;;16.84;61.54
78149;BME280;67396;42.664;23.382;2023-05-17T12:09:43;94406.88;;;16.88;61.73
78149;BME280;67396;42.664;23.382;2023-05-17T12:12:08;94412.31;;;16.92;61.95
78149;BME280;67396;42.664;23.382;2023-05-17T12:14:34;94413.09;;;16.92;61.49
78149;BME280;67396;42.664;23.382;2023-05-17T12:17:00;94388.84;;;16.97;60.64
78149;BME280;67396;42.664;23.382;2023-05-17T12:19:28;94385.84;;;17.04;60.89
78149;BME280;67396;42.664;23.382;2023-05-17T12:22:08;94384.78;;;17.14;60.39
78149;BME280;67396;42.664;23.382;2023-05-17T12:24:40;94390.97;;;17.18;58.79
78149;BME280;67396;42.664;23.382;2023-05-17T12:27:06;94385.88;;;17.16;59.94
78149;BME280;67396;42.664;23.382;2023-05-17T12:29:32;94392.06;;;17.08;59.85
78149;BME280;67396;42.664;23.382;2023-05-17T12:31:58;94374.44;;;17.14;60.60
78149;BME280;67396;42.664;23.382;2023-05-17T12:34:25;94387.19;;;17.12;61.30
78149;BME280;67396;42.664;23.382;2023-05-17T12:36:51;94391.50;;;17.00;62.21
78149;BME280;67396;42.664;23.382;2023-05-17T12:39:17;94383.16;;;17.00;62.41
78149;BME280;67396;42.664;23.382;2023-05-17T12:41:48;94386.06;;;16.97;63.11
78149;BME280;67396;42.664;23.382;2023-05-17T12:44:14;94384.81;;;16.98;62.45
78149;BME280;67396;42.664;23.382;2023-05-17T12:46:40;94384.16;;;16.93;62.23
78149;BME280;67396;42.664;23.382;2023-05-17T12:49:07;94377.06;;;16.92;62.89
78149;BME280;67396;42.664;23.382;2023-05-17T12:51:44;94369.28;;;16.87;62.40
78149;BME280;67396;42.664;23.382;2023-05-17T12:54:11;94368.09;;;16.88;61.92
78149;BME280;67396;42.664;23.382;2023-05-17T12:56:36;94365.63;;;16.90;62.62
78149;BME280;67396;42.664;23.382;2023-05-17T12:59:17;94377.16;;;16.89;62.13
78149;BME280;67396;42.664;23.382;2023-05-17T13:01:49;94375.50;;;16.91;62.15